Alvo, Nebraska
Current Conditions -  °F | °C
As of 9:54 AM on Wednesday 22 Oct 2014 (Local Time) from KLNK Reporting Station
Clear Clear  
Wind Chill: 61°   Ceiling: Unl
Heat Index: 61°   Visibility: 9mi
Dew Point: 48°   Wind: 14mph
Humidity: 62%   Direction: 170°S
Pressure: 30.08"   Gusts: NA
Location:  40.87°N, 96.39°W
Report Text: KLNK 221454Z 17012KT 9SM CLR 16/09 A3008 RMK AO2 SLP183 T01610089 53001
Loading
Personal Weather Stations






























Interactive Weather Map
Tropical Storm Tracking
New forecast layout! Learn more

10-Day Weather Forecast

Advertisements
Track Severe Weather on mobile